ΕΜΥ, Εθνική Μετεωρολογική Υπηρεσία - Δελτία Καιρού, Προγνώσεις

ΑΕΡΟΝΑΥΤΙΛΙΑ

GREEK AIRPORTS CODES

LGPL 191000Z 13012KT CAVOK 24/19 Q1011 RMK FEW080 SCT180=

EUROPEAN AIRPORTS CODES

LFPO 191400Z VRB03KT 9999 FEW025 BKN110 18/12 Q1012 TEMPO4000 BKN020TCU=